Time;durP1;ratioP1;P1;durP2;ratioP2;P2;SDS_P1;SDS_P2;PMS_P1;PMS_P2;Temp;Humidity;BMP_temperature;BMP_pressure;BME280_temperature;BME280_humidity;BME280_pressure;Samples;Min_cycle;Max_cycle;Signal;HPM_P1;HPM_P2
2023/09/28 00:01:45;;;;;;;4.43;3.50;;;;;;;15.48;72.07;95743.09;6153846;23;20151;-80
2023/09/28 00:04:10;;;;;;;5.20;3.72;;;;;;;15.52;72.94;95746.16;6128318;23;20187;-80
2023/09/28 00:06:35;;;;;;;4.93;3.05;;;;;;;15.63;72.64;95742.34;6154045;23;20162;-80
2023/09/28 00:09:01;;;;;;;4.00;3.30;;;;;;;15.68;72.17;95750.50;6129901;23;20211;-80
2023/09/28 00:11:26;;;;;;;3.50;3.08;;;;;;;15.60;72.43;95748.72;6155337;23;20178;-80
2023/09/28 00:13:51;;;;;;;5.50;3.65;;;;;;;15.66;72.02;95757.72;6153846;23;20151;-79
2023/09/28 00:16:16;;;;;;;3.78;3.17;;;;;;;15.66;72.33;95755.94;6129951;23;20600;-80
2023/09/28 00:18:42;;;;;;;7.50;3.42;;;;;;;15.72;71.76;95759.63;6154675;23;20240;-80
2023/09/28 00:21:07;;;;;;;3.30;3.00;;;;;;;15.72;71.99;95751.78;6154742;23;20197;-80
2023/09/28 00:23:33;;;;;;;4.13;3.15;;;;;;;15.70;71.75;95759.00;6153101;23;20159;-80
2023/09/28 00:25:58;;;;;;;3.50;3.20;;;;;;;15.65;71.69;95756.09;6129815;23;20627;-80
2023/09/28 00:28:23;;;;;;;6.57;3.55;;;;;;;15.62;71.85;95756.44;6154854;23;20155;-80
2023/09/28 00:30:49;;;;;;;3.53;3.22;;;;;;;15.56;71.87;95757.94;6155975;23;20157;-80
2023/09/28 00:33:14;;;;;;;4.10;3.03;;;;;;;15.54;71.96;95754.66;6153998;23;20151;-81
2023/09/28 00:35:39;;;;;;;4.95;3.40;;;;;;;15.50;72.08;95754.19;6129778;23;20206;-80
2023/09/28 00:38:05;;;;;;;4.70;3.40;;;;;;;15.48;72.04;95753.56;6154386;23;20166;-80
2023/09/28 00:40:33;;;;;;;4.38;3.30;;;;;;;15.47;72.07;95743.25;6130182;23;20491;-80
2023/09/28 00:43:00;;;;;;;3.72;3.05;;;;;;;15.47;71.72;95745.88;6129723;23;20607;-80
2023/09/28 00:45:26;;;;;;;3.58;3.17;;;;;;;15.43;72.00;95745.41;6154065;23;20530;-80
2023/09/28 00:47:54;;;;;;;3.80;3.20;;;;;;;15.44;72.03;95743.59;6154038;23;20238;-80
2023/09/28 00:50:20;;;;;;;3.58;2.97;;;;;;;15.42;71.80;95743.78;6130072;23;20223;-80
2023/09/28 00:52:58;;;;;;;4.35;3.30;;;;;;;15.42;71.73;95738.53;6129276;23;20246;-79
2023/09/28 00:55:24;;;;;;;3.88;3.15;;;;;;;15.38;71.99;95739.88;6129493;23;20665;-80
2023/09/28 00:57:50;;;;;;;3.22;2.92;;;;;;;15.34;71.96;95738.56;6129510;23;20167;-80
2023/09/28 01:00:19;;;;;;;3.55;3.22;;;;;;;15.44;71.28;95739.16;6177872;23;20159;-80
2023/09/28 01:02:51;;;;;;;4.72;2.78;;;;;;;15.53;70.18;95729.47;6153190;23;20183;-80
2023/09/28 01:05:22;;;;;;;3.60;3.03;;;;;;;15.66;68.96;95728.94;6129587;23;20702;-81
2023/09/28 01:07:47;;;;;;;6.20;3.60;;;;;;;15.76;67.13;95732.13;6178870;23;20678;-80
2023/09/28 01:10:14;;;;;;;4.93;3.30;;;;;;;15.83;66.26;95720.78;6128230;23;20192;-80
2023/09/28 01:12:39;;;;;;;4.05;3.05;;;;;;;15.90;65.68;95731.34;6153409;23;20156;-80
2023/09/28 01:15:09;;;;;;;4.53;3.20;;;;;;;15.98;64.67;95735.72;6153824;23;20242;-80
2023/09/28 01:17:35;;;;;;;3.25;2.70;;;;;;;16.03;63.76;95738.63;6130301;23;20514;-79
2023/09/28 01:20:01;;;;;;;4.97;2.83;;;;;;;16.14;63.45;95744.25;6153929;23;20163;-80
2023/09/28 01:22:27;;;;;;;3.33;3.00;;;;;;;16.20;62.64;95740.13;6153373;23;20587;-81
2023/09/28 01:24:52;;;;;;;3.28;2.72;;;;;;;16.29;61.51;95739.06;6154719;23;20178;-80
2023/09/28 01:27:18;;;;;;;3.38;3.08;;;;;;;16.39;60.31;95744.03;6129209;23;20159;-81
2023/09/28 01:29:44;;;;;;;3.42;2.90;;;;;;;16.49;59.70;95738.53;6128887;23;20262;-80
2023/09/28 01:32:09;;;;;;;3.97;2.80;;;;;;;16.55;58.37;95730.78;6154437;23;20190;-79
2023/09/28 01:34:34;;;;;;;3.83;2.72;;;;;;;16.58;58.98;95740.88;6127790;23;20234;-80
2023/09/28 01:37:00;;;;;;;3.17;2.47;;;;;;;16.60;58.85;95731.03;6153222;23;20151;-80
2023/09/28 01:39:26;;;;;;;3.42;2.70;;;;;;;16.60;58.35;95724.97;6152858;23;20151;-80
2023/09/28 01:41:51;;;;;;;3.95;2.65;;;;;;;16.54;58.30;95734.38;6153401;23;20156;-80
2023/09/28 01:44:16;;;;;;;4.30;2.90;;;;;;;16.56;57.42;95727.16;6152875;23;20222;-80
2023/09/28 01:46:42;;;;;;;5.10;2.78;;;;;;;16.58;57.12;95726.97;6153201;23;20155;-80
2023/09/28 01:49:07;;;;;;;3.55;2.92;;;;;;;16.61;57.05;95716.13;6153980;23;20642;-80
2023/09/28 01:51:32;;;;;;;5.35;2.90;;;;;;;16.60;56.70;95724.97;6126975;23;20167;-80
2023/09/28 01:53:58;;;;;;;3.47;2.65;;;;;;;16.57;56.45;95726.16;6127593;23;20167;-80
2023/09/28 01:56:23;;;;;;;4.78;2.72;;;;;;;16.55;56.56;95727.34;6153525;23;20194;-81
2023/09/28 01:58:49;;;;;;;4.53;3.00;;;;;;;16.56;55.98;95734.22;6127996;23;20637;-80
2023/09/28 02:01:28;;;;;;;5.47;2.85;;;;;;;16.58;55.84;95727.78;6155298;23;20151;-80
2023/09/28 02:03:53;;;;;;;3.95;2.88;;;;;;;16.59;55.60;95733.84;6152737;23;20194;-80
2023/09/28 02:06:19;;;;;;;4.18;2.75;;;;;;;16.57;55.24;95736.66;6153768;23;20232;-81
2023/09/28 02:08:45;;;;;;;4.38;3.05;;;;;;;16.54;55.46;95739.63;6152088;23;20175;-79
2023/09/28 02:11:11;;;;;;;3.30;2.80;;;;;;;16.56;55.79;95732.41;6152423;23;20160;-80
2023/09/28 02:13:36;;;;;;;3.50;3.08;;;;;;;16.47;56.21;95743.97;6149751;23;20669;-80
2023/09/28 02:16:01;;;;;;;4.38;3.30;;;;;;;16.44;56.42;95744.31;6151039;23;20555;-80
2023/09/28 02:18:27;;;;;;;3.60;2.83;;;;;;;16.41;56.96;95752.53;6153449;23;20166;-81
2023/09/28 02:20:52;;;;;;;3.00;2.65;;;;;;;16.36;57.74;95750.47;6151119;23;20687;-81
2023/09/28 02:23:18;;;;;;;3.92;2.85;;;;;;;16.23;58.82;95745.00;6126386;23;20206;-79
2023/09/28 02:25:43;;;;;;;4.10;2.92;;;;;;;16.20;58.69;95752.41;6126225;23;20210;-79
2023/09/28 02:28:09;;;;;;;3.92;2.78;;;;;;;16.16;58.74;95746.69;6128497;23;20202;-80
2023/09/28 02:30:35;;;;;;;4.05;2.55;;;;;;;16.08;60.30;95749.41;6153256;23;20186;-80
2023/09/28 02:33:00;;;;;;;3.60;2.85;;;;;;;16.02;60.48;95747.47;6127877;23;20242;-81
2023/09/28 02:35:25;;;;;;;2.95;2.63;;;;;;;15.98;60.53;95749.63;6152682;23;20261;-80
2023/09/28 02:37:52;;;;;;;4.90;3.25;;;;;;;15.93;60.91;95767.69;6155517;23;20155;-80
2023/09/28 02:40:18;;;;;;;4.22;2.75;;;;;;;15.90;60.95;95761.97;6153736;23;20159;-81
2023/09/28 02:42:44;;;;;;;3.38;2.80;;;;;;;15.88;61.32;95771.81;6153291;23;20205;-80
2023/09/28 02:45:11;;;;;;;3.80;2.55;;;;;;;15.82;62.41;95762.88;6153294;23;20598;-80
2023/09/28 02:47:41;;;;;;;3.63;3.00;;;;;;;15.85;62.01;95760.69;6153216;23;20245;-80
2023/09/28 02:50:11;;;;;;;3.92;2.83;;;;;;;15.83;61.93;95756.63;6128738;23;20201;-79
2023/09/28 02:52:38;;;;;;;4.82;2.85;;;;;;;15.81;62.07;95766.44;6129048;23;20202;-80
2023/09/28 02:55:07;;;;;;;3.72;2.70;;;;;;;15.80;62.05;95767.44;6152145;23;20254;-81
2023/09/28 02:57:33;;;;;;;3.13;2.60;;;;;;;15.78;62.85;95761.56;6152895;23;20151;-80
2023/09/28 02:59:59;;;;;;;2.83;2.45;;;;;;;15.84;62.28;95745.97;6128161;23;20206;-79
2023/09/28 03:02:25;;;;;;;4.57;2.95;;;;;;;15.82;62.27;95747.97;6153401;23;20210;-80
2023/09/28 03:04:50;;;;;;;3.38;3.00;;;;;;;15.73;63.33;95750.81;6151132;23;20262;-79
2023/09/28 03:07:16;;;;;;;3.28;2.80;;;;;;;15.78;62.87;95751.91;6154496;23;20155;-80
2023/09/28 03:09:42;;;;;;;3.85;3.15;;;;;;;15.79;62.96;95752.72;6129450;23;20190;-79
2023/09/28 03:12:07;;;;;;;6.30;3.30;;;;;;;15.77;63.35;95749.47;6131335;23;20163;-80
2023/09/28 03:14:32;;;;;;;4.57;3.15;;;;;;;15.81;62.27;95746.34;6126050;23;20205;-79
2023/09/28 03:16:58;;;;;;;5.22;2.83;;;;;;;15.82;61.86;95747.97;6127376;23;20507;-80
2023/09/28 03:19:23;;;;;;;3.53;3.08;;;;;;;15.83;61.61;95754.00;6127774;23;20167;-80
2023/09/28 03:21:49;;;;;;;5.57;2.85;;;;;;;15.83;61.72;95754.00;6152410;23;20286;-79
2023/09/28 03:24:14;;;;;;;3.58;2.83;;;;;;;15.84;61.43;95751.22;6153392;23;20183;-79
2023/09/28 03:26:40;;;;;;;3.33;2.90;;;;;;;15.86;61.31;95758.88;6154117;23;20159;-80
2023/09/28 03:29:06;;;;;;;4.15;2.92;;;;;;;15.86;61.08;95756.28;6129772;23;20238;-80
2023/09/28 03:31:32;;;;;;;4.40;3.53;;;;;;;15.84;61.41;95755.63;6133949;23;20158;-80
2023/09/28 03:33:58;;;;;;;3.97;2.80;;;;;;;15.83;61.51;95756.63;6129950;23;20206;-79
2023/09/28 03:36:24;;;;;;;3.67;2.90;;;;;;;15.82;61.49;95763.69;6129705;23;20174;-79
2023/09/28 03:38:50;;;;;;;3.88;3.00;;;;;;;15.80;61.73;95770.06;6154658;23;20151;-79
2023/09/28 03:41:15;;;;;;;3.05;2.75;;;;;;;15.83;61.76;95767.09;6155871;23;20155;-79
2023/09/28 03:43:44;;;;;;;3.28;2.92;;;;;;;15.82;63.30;95770.72;6129218;23;20535;-80
2023/09/28 03:46:10;;;;;;;6.15;3.58;;;;;;;15.78;64.21;95772.03;6129789;23;20504;-81
2023/09/28 03:48:35;;;;;;;5.53;3.17;;;;;;;15.67;65.61;95773.25;6153520;23;20592;-80
2023/09/28 03:51:01;;;;;;;4.38;3.15;;;;;;;15.65;65.98;95780.47;6133726;23;20298;-80
2023/09/28 03:53:26;;;;;;;3.95;2.58;;;;;;;15.72;65.73;95775.34;6153462;23;20179;-79
2023/09/28 03:55:52;;;;;;;5.53;3.90;;;;;;;15.60;65.76;95788.00;6153980;23;20206;-80
2023/09/28 03:58:17;;;;;;;6.97;3.58;;;;;;;15.56;65.77;95784.09;6154125;23;20201;-79
2023/09/28 04:00:43;;;;;;;4.30;3.15;;;;;;;15.54;65.68;95789.47;6154066;23;20143;-80
2023/09/28 04:03:08;;;;;;;6.18;3.20;;;;;;;15.54;65.49;95786.88;6128711;23;20183;-80
2023/09/28 04:05:34;;;;;;;3.72;2.72;;;;;;;15.54;65.21;95797.34;6152900;23;20190;-80
2023/09/28 04:08:00;;;;;;;3.63;2.85;;;;;;;15.56;65.25;95792.78;6129514;23;20159;-80
2023/09/28 04:10:26;;;;;;;4.18;3.00;;;;;;;15.66;64.78;95797.00;6159816;23;20218;-80
2023/09/28 04:12:54;;;;;;;6.53;3.25;;;;;;;15.70;64.57;95793.84;6156629;23;20156;-80
2023/09/28 04:15:19;;;;;;;4.55;2.92;;;;;;;15.75;64.11;95799.41;6156370;23;20175;-80
2023/09/28 04:17:45;;;;;;;3.75;3.38;;;;;;;15.78;63.83;95790.38;6131706;23;20536;-81
2023/09/28 04:20:10;;;;;;;3.40;3.00;;;;;;;15.80;63.43;95788.38;6130010;23;20844;-80
2023/09/28 04:22:36;;;;;;;4.38;3.60;;;;;;;15.86;62.86;95780.66;6154713;23;20607;-80
2023/09/28 04:25:02;;;;;;;4.13;3.13;;;;;;;15.86;62.69;95779.84;6154807;23;20395;-80
2023/09/28 04:27:27;;;;;;;6.13;3.50;;;;;;;15.92;62.18;95786.19;6128428;23;20163;-80
2023/09/28 04:29:52;;;;;;;5.20;2.90;;;;;;;15.97;61.87;95789.09;6160360;23;20215;-79
2023/09/28 04:32:18;;;;;;;5.25;3.30;;;;;;;16.00;61.46;95792.19;6126867;23;20159;-80
2023/09/28 04:34:43;;;;;;;4.72;3.10;;;;;;;16.01;61.23;95793.00;6130754;23;20179;-79
2023/09/28 04:37:08;;;;;;;5.03;3.10;;;;;;;15.98;61.00;95801.19;6134171;23;20194;-80
2023/09/28 04:39:34;;;;;;;3.33;2.50;;;;;;;16.03;60.51;95791.84;6131728;23;20151;-78
2023/09/28 04:42:00;;;;;;;4.78;3.15;;;;;;;16.01;59.80;95785.97;6158272;23;20154;-79
2023/09/28 04:44:25;;;;;;;5.28;2.72;;;;;;;16.04;59.76;95790.03;6129277;23;20209;-80
2023/09/28 04:46:50;;;;;;;3.92;3.15;;;;;;;16.05;59.99;95794.28;6128512;23;20214;-80
2023/09/28 04:49:17;;;;;;;3.72;3.33;;;;;;;16.02;60.20;95794.63;6154582;23;20223;-80
2023/09/28 04:51:42;;;;;;;3.28;2.63;;;;;;;15.98;60.61;95794.16;6161557;23;20187;-79
2023/09/28 04:54:08;;;;;;;3.15;2.80;;;;;;;15.99;60.90;95798.44;6153574;23;20175;-80
2023/09/28 04:56:33;;;;;;;3.42;2.90;;;;;;;15.96;61.00;95790.91;6153390;23;20218;-79
2023/09/28 04:58:59;;;;;;;3.03;2.70;;;;;;;15.95;61.17;95794.50;6153634;23;20695;-79
2023/09/28 05:01:25;;;;;;;4.95;2.50;;;;;;;15.88;61.32;95790.13;6128459;23;20163;-78
2023/09/28 05:03:50;;;;;;;5.90;3.08;;;;;;;15.83;61.67;95794.09;6128094;23;20177;-80
2023/09/28 05:06:16;;;;;;;3.50;2.90;;;;;;;15.80;61.55;95791.00;6128529;23;20238;-80
2023/09/28 05:08:41;;;;;;;4.97;3.13;;;;;;;15.75;61.31;95798.56;6129815;23;20202;-80
2023/09/28 05:11:06;;;;;;;3.42;2.85;;;;;;;15.69;61.56;95805.31;6155324;23;20546;-80
2023/09/28 05:13:31;;;;;;;4.45;3.15;;;;;;;15.68;61.33;95810.72;6175997;23;20171;-81
2023/09/28 05:15:57;;;;;;;3.75;2.60;;;;;;;15.67;60.04;95812.53;6156090;23;20170;-81
2023/09/28 05:18:22;;;;;;;4.18;3.53;;;;;;;15.62;60.41;95824.50;6157273;23;20148;-81
2023/09/28 05:20:48;;;;;;;3.95;3.03;;;;;;;15.65;60.16;95819.75;6181454;23;20170;-80
2023/09/28 05:23:13;;;;;;;4.75;2.80;;;;;;;15.63;59.66;95821.69;6180988;23;20152;-79
2023/09/28 05:25:38;;;;;;;4.88;2.78;;;;;;;15.58;59.89;95830.06;6156621;23;20202;-79
2023/09/28 05:28:04;;;;;;;3.60;2.78;;;;;;;15.57;59.63;95833.66;6182934;23;20143;-78
2023/09/28 05:30:30;;;;;;;8.00;3.17;;;;;;;15.58;59.39;95845.75;6206858;23;20202;-78
2023/09/28 05:32:55;;;;;;;5.25;3.17;;;;;;;15.62;59.43;95848.06;6180631;23;20194;-77
2023/09/28 05:35:22;;;;;;;4.63;3.55;;;;;;;15.47;59.59;95851.38;6180099;23;20183;-76
2023/09/28 05:37:47;;;;;;;4.18;3.40;;;;;;;15.54;59.04;95848.88;6180525;23;20191;-78
2023/09/28 05:40:13;;;;;;;3.63;2.78;;;;;;;15.54;58.33;95856.72;6155963;23;20174;-78
2023/09/28 05:42:39;;;;;;;4.18;3.10;;;;;;;15.66;57.26;95854.59;6138019;23;20519;-80
2023/09/28 05:45:05;;;;;;;4.65;2.70;;;;;;;15.68;57.08;95855.22;6157104;23;20175;-80
2023/09/28 05:47:31;;;;;;;6.10;2.90;;;;;;;15.72;56.78;95859.13;6157500;23;20190;-80
2023/09/28 05:49:56;;;;;;;4.78;2.83;;;;;;;15.72;56.63;95852.09;6132312;23;20178;-80
2023/09/28 05:52:22;;;;;;;4.22;3.15;;;;;;;15.77;56.53;95862.06;6131894;23;20511;-79
2023/09/28 05:54:49;;;;;;;4.75;3.15;;;;;;;15.75;56.38;95864.84;6156590;23;20707;-79
2023/09/28 05:57:14;;;;;;;3.65;2.83;;;;;;;15.78;56.10;95867.13;6131604;23;20159;-79
2023/09/28 05:59:40;;;;;;;3.55;2.72;;;;;;;15.88;55.65;95866.09;6155892;23;20155;-79
2023/09/28 06:02:05;;;;;;;4.13;2.60;;;;;;;15.98;54.34;95851.78;6130449;23;20693;-79
2023/09/28 06:04:31;;;;;;;5.07;2.80;;;;;;;16.03;53.98;95859.94;6126906;23;20631;-78
2023/09/28 06:06:56;;;;;;;4.13;2.80;;;;;;;16.19;52.86;95863.44;6126967;23;20163;-79
2023/09/28 06:09:22;;;;;;;4.35;2.85;;;;;;;16.27;52.87;95856.34;6130584;23;20180;-78
2023/09/28 06:11:48;;;;;;;4.05;2.90;;;;;;;16.40;52.53;95853.13;6130624;23;20159;-80
2023/09/28 06:14:15;;;;;;;3.47;2.90;;;;;;;16.38;53.49;95858.53;6155075;23;20542;-78
2023/09/28 06:16:42;;;;;;;3.55;3.00;;;;;;;16.52;52.70;95861.38;6154703;23;20548;-79
2023/09/28 06:19:07;;;;;;;4.13;3.00;;;;;;;16.65;52.56;95854.53;6130069;23;20155;-80
2023/09/28 06:21:32;;;;;;;3.45;2.92;;;;;;;16.73;51.96;95853.69;6130939;23;20205;-79
2023/09/28 06:23:58;;;;;;;2.97;2.42;;;;;;;16.86;52.00;95853.06;6152178;23;20210;-77
2023/09/28 06:26:24;;;;;;;3.42;2.60;;;;;;;16.73;52.66;95855.50;6154241;23;20217;-79
2023/09/28 06:28:49;;;;;;;3.50;2.58;;;;;;;16.77;52.61;95856.75;6127690;23;20163;-79
2023/09/28 06:31:18;;;;;;;3.83;2.60;;;;;;;16.60;53.48;95859.50;6127301;23;20163;-79
2023/09/28 06:33:44;;;;;;;5.60;3.08;;;;;;;16.56;53.46;95853.00;6151095;23;20220;-80
2023/09/28 06:36:09;;;;;;;3.20;2.35;;;;;;;16.51;52.93;95851.88;6128648;23;20274;-79
2023/09/28 06:38:34;;;;;;;2.63;2.38;;;;;;;16.52;53.18;95848.25;6152589;23;20209;-78
2023/09/28 06:41:00;;;;;;;3.20;2.70;;;;;;;16.46;53.08;95857.66;6127654;23;20159;-77
2023/09/28 06:43:25;;;;;;;4.28;2.33;;;;;;;16.59;52.29;95859.69;6126692;23;20156;-81
2023/09/28 06:45:50;;;;;;;3.65;2.10;;;;;;;16.59;52.30;95863.13;6127872;23;20187;-83
2023/09/28 06:48:16;;;;;;;5.30;2.53;;;;;;;16.64;52.20;95870.47;6128208;23;20505;-80
2023/09/28 06:50:41;;;;;;;3.80;2.38;;;;;;;16.78;52.15;95869.69;6153049;23;20178;-79
2023/09/28 06:53:07;;;;;;;3.72;2.25;;;;;;;16.92;52.01;95865.47;6127832;23;20167;-79
2023/09/28 06:55:32;;;;;;;2.72;2.40;;;;;;;17.15;51.00;95858.38;6127719;23;20190;-79
2023/09/28 06:57:58;;;;;;;2.92;2.15;;;;;;;17.38;51.31;95860.06;6128813;23;20171;-80
2023/09/28 07:00:23;;;;;;;3.03;1.95;;;;;;;17.62;50.56;95872.91;6152000;23;20224;-80
2023/09/28 07:02:50;;;;;;;4.13;2.40;;;;;;;17.85;48.06;95877.25;6128313;23;20155;-80
2023/09/28 07:05:16;;;;;;;3.95;2.17;;;;;;;18.05;47.74;95875.66;6137277;23;20166;-79
2023/09/28 07:07:45;;;;;;;3.13;2.30;;;;;;;18.16;46.65;95885.69;6173853;23;20487;-81
2023/09/28 07:10:11;;;;;;;2.65;2.40;;;;;;;18.28;46.28;95889.44;6146323;23;20241;-80
2023/09/28 07:12:37;;;;;;;3.10;2.40;;;;;;;18.27;46.69;95898.31;6163381;23;20198;-80
2023/09/28 07:15:03;;;;;;;2.63;2.10;;;;;;;18.33;47.06;95912.53;6142087;23;20179;-81
2023/09/28 07:17:29;;;;;;;3.83;2.35;;;;;;;18.29;46.59;95904.22;6129896;23;20561;-81
2023/09/28 07:19:54;;;;;;;4.50;2.83;;;;;;;18.32;46.56;95916.19;6153994;23;20159;-81
2023/09/28 07:22:21;;;;;;;4.13;2.72;;;;;;;18.36;47.23;95920.84;6152564;23;20166;-81
2023/09/28 07:24:46;;;;;;;5.82;3.03;;;;;;;18.38;46.96;95924.13;6152688;23;20179;-81
2023/09/28 07:27:12;;;;;;;3.88;3.20;;;;;;;18.38;46.54;95925.97;6127598;23;20487;-80
2023/09/28 07:29:38;;;;;;;3.42;2.90;;;;;;;18.38;47.25;95926.78;6151812;23;20246;-80
2023/09/28 07:32:04;;;;;;;4.05;2.85;;;;;;;18.52;46.66;95919.81;6126805;23;20210;-81
2023/09/28 07:34:30;;;;;;;5.50;3.10;;;;;;;18.68;45.75;95919.59;6126349;23;20277;-81
2023/09/28 07:36:55;;;;;;;6.32;2.97;;;;;;;18.79;45.97;95918.25;6125694;23;20198;-80
2023/09/28 07:39:20;;;;;;;4.43;3.10;;;;;;;18.88;45.60;95916.31;6150775;23;20170;-81
2023/09/28 07:41:45;;;;;;;3.25;2.75;;;;;;;18.96;45.14;95911.72;6125931;23;20171;-81
2023/09/28 07:44:11;;;;;;;5.93;2.58;;;;;;;19.07;44.87;95901.69;6147519;23;20175;-80
2023/09/28 07:46:36;;;;;;;4.20;2.80;;;;;;;19.20;44.10;95914.94;6149507;23;20163;-78
2023/09/28 07:49:02;;;;;;;4.55;2.60;;;;;;;19.26;43.78;95901.03;6130257;23;20209;-79
2023/09/28 07:51:27;;;;;;;4.15;2.35;;;;;;;19.37;44.68;95911.00;6151895;23;20155;-80
2023/09/28 07:53:52;;;;;;;4.75;3.08;;;;;;;19.45;44.44;95917.94;6124906;23;20167;-80
2023/09/28 07:56:18;;;;;;;3.03;2.47;;;;;;;19.56;44.20;95916.59;6125850;23;20159;-80
2023/09/28 07:58:43;;;;;;;3.00;2.53;;;;;;;19.61;44.34;95909.75;6152109;23;20243;-79
2023/09/28 08:01:09;;;;;;;3.55;2.70;;;;;;;19.75;43.79;95913.28;6152124;23;20159;-82
2023/09/28 08:03:37;;;;;;;4.07;2.83;;;;;;;19.84;43.70;95912.09;6151025;23;20606;-82
2023/09/28 08:06:03;;;;;;;5.63;2.50;;;;;;;19.96;43.81;95902.59;6127320;23;20206;-83
2023/09/28 08:08:29;;;;;;;4.88;2.50;;;;;;;20.11;43.57;95913.00;6153431;23;20607;-81
2023/09/28 08:10:54;;;;;;;4.03;2.65;;;;;;;20.16;43.83;95915.06;6130472;23;20195;-81
2023/09/28 08:13:19;;;;;;;3.95;2.70;;;;;;;20.27;43.36;95917.13;6153429;23;20178;-82
2023/09/28 08:15:45;;;;;;;3.22;2.80;;;;;;;20.36;43.29;95918.56;6153646;23;20613;-82
2023/09/28 08:18:10;;;;;;;3.47;2.42;;;;;;;20.45;42.47;95925.31;6155451;23;20595;-82
2023/09/28 08:20:35;;;;;;;3.58;2.47;;;;;;;20.60;41.93;95919.88;6128449;23;20175;-82
2023/09/28 08:23:01;;;;;;;2.65;2.40;;;;;;;20.73;41.10;95924.34;6153664;23;20160;-81
2023/09/28 08:25:26;;;;;;;3.83;2.28;;;;;;;20.85;40.75;95933.28;6128657;23;20265;-82
2023/09/28 08:27:51;;;;;;;5.28;2.47;;;;;;;20.89;40.93;95932.66;6128998;23;20166;-82
2023/09/28 08:30:17;;;;;;;4.22;2.30;;;;;;;21.00;40.82;95927.81;6128454;23;20191;-81
2023/09/28 08:32:42;;;;;;;2.50;2.28;;;;;;;21.09;40.42;95930.03;6154383;23;20206;-81
2023/09/28 08:35:10;;;;;;;8.05;2.30;;;;;;;21.14;40.06;95935.53;6128918;23;20183;-81
2023/09/28 08:37:36;;;;;;;3.58;2.20;;;;;;;21.21;39.61;95936.34;6128917;23;20274;-84
2023/09/28 08:40:02;;;;;;;3.08;2.42;;;;;;;21.34;38.67;95935.53;6155689;23;20536;-82
2023/09/28 08:42:29;;;;;;;2.65;2.08;;;;;;;21.43;37.72;95930.84;6128128;23;20218;-80
2023/09/28 08:45:00;;;;;;;2.88;2.20;;;;;;;21.59;37.95;95943.63;6128611;23;20354;-80
2023/09/28 08:47:26;;;;;;;2.70;2.13;;;;;;;21.72;38.60;95938.28;6153552;23;20185;-81
2023/09/28 08:49:52;;;;;;;2.78;2.00;;;;;;;21.94;38.22;95943.34;6176702;23;20536;-81
2023/09/28 08:52:18;;;;;;;2.80;2.20;;;;;;;22.06;38.21;95939.00;6128299;23;20160;-79
2023/09/28 08:54:43;;;;;;;2.40;2.00;;;;;;;22.25;37.83;95935.50;6128727;23;20230;-80
2023/09/28 08:57:10;;;;;;;2.85;2.15;;;;;;;22.07;37.65;95932.72;6152123;23;20209;-79
2023/09/28 08:59:37;;;;;;;4.40;2.30;;;;;;;22.37;37.72;95940.94;6128356;23;20174;-80
2023/09/28 09:02:03;;;;;;;3.25;2.30;;;;;;;22.52;37.88;95938.00;6128422;23;20161;-80
2023/09/28 09:04:31;;;;;;;2.17;1.98;;;;;;;22.45;37.47;95942.53;6127332;23;20505;-80
2023/09/28 09:06:57;;;;;;;3.67;2.58;;;;;;;22.53;36.60;95951.03;6128321;23;20549;-80
2023/09/28 09:09:24;;;;;;;2.15;1.88;;;;;;;22.69;34.69;95941.75;6128579;23;20180;-79
2023/09/28 09:11:51;;;;;;;3.25;2.42;;;;;;;22.71;35.58;95945.03;6127238;23;20163;-78
2023/09/28 09:14:16;;;;;;;3.38;1.92;;;;;;;22.88;34.75;95947.97;6124545;23;20725;-79
2023/09/28 09:16:42;;;;;;;4.35;2.10;;;;;;;22.93;34.79;95950.81;6152414;23;20175;-79
2023/09/28 09:19:13;;;;;;;2.45;2.13;;;;;;;22.83;35.84;95953.09;6153865;23;20214;-80
2023/09/28 09:21:40;;;;;;;3.20;2.50;;;;;;;22.90;34.92;95943.28;6129127;23;20167;-79
2023/09/28 09:24:13;;;;;;;3.10;2.70;;;;;;;22.86;36.90;95963.28;6150208;23;20159;-78
2023/09/28 09:26:40;;;;;;;4.20;2.78;;;;;;;23.01;36.54;95957.69;6150109;23;20140;-79
2023/09/28 09:29:07;;;;;;;3.30;2.60;;;;;;;22.99;37.38;95971.13;6152451;23;20185;-79
2023/09/28 09:31:33;;;;;;;2.80;2.40;;;;;;;23.13;36.92;95961.25;6128561;23;20563;-80
2023/09/28 09:34:01;;;;;;;3.30;2.33;;;;;;;22.82;36.58;95968.16;6128122;23;20650;-79
2023/09/28 09:36:27;;;;;;;3.75;2.40;;;;;;;23.05;36.90;95966.78;6128731;23;20169;-79
2023/09/28 09:38:53;;;;;;;3.65;2.45;;;;;;;23.24;36.11;95971.16;6128027;23;20519;-79
2023/09/28 09:41:18;;;;;;;2.50;1.90;;;;;;;23.39;34.95;95961.00;6152995;23;20152;-80
2023/09/28 09:43:44;;;;;;;2.85;2.03;;;;;;;23.49;34.73;95967.66;6153664;23;20580;-79
2023/09/28 09:46:09;;;;;;;2.55;2.13;;;;;;;23.65;34.86;95960.00;6128433;23;20622;-79
2023/09/28 09:48:42;;;;;;;3.92;2.35;;;;;;;23.63;35.58;95966.53;6153475;23;20162;-80
2023/09/28 09:51:12;;;;;;;6.25;2.67;;;;;;;23.37;38.15;95964.91;6153109;23;20170;-80
2023/09/28 09:53:42;;;;;;;3.53;2.60;;;;;;;23.49;38.17;95965.00;6129590;23;20159;-79
2023/09/28 09:56:08;;;;;;;4.13;2.67;;;;;;;23.62;38.44;95956.97;6130691;23;20506;-83
2023/09/28 09:58:39;;;;;;;4.53;2.45;;;;;;;23.56;38.21;95960.47;6183169;23;20178;-82
2023/09/28 10:01:15;;;;;;;3.10;2.80;;;;;;;23.53;37.68;95956.41;6158949;23;20242;-83
2023/09/28 10:03:50;;;;;;;3.13;2.78;;;;;;;23.51;37.48;95955.84;6155980;23;20135;-82
2023/09/28 10:06:19;;;;;;;5.10;2.53;;;;;;;23.37;38.16;95954.31;6133621;23;20260;-81
2023/09/28 10:08:46;;;;;;;2.35;2.00;;;;;;;23.53;34.83;95956.41;6157900;23;20166;-82
2023/09/28 10:11:12;;;;;;;2.20;2.00;;;;;;;23.74;35.14;95952.56;6131343;23;20168;-81
2023/09/28 10:13:39;;;;;;;3.13;2.30;;;;;;;24.04;34.95;95952.66;6130812;23;20167;-83
2023/09/28 10:16:06;;;;;;;2.33;2.03;;;;;;;23.95;35.20;95944.19;6181760;23;20179;-81
2023/09/28 10:18:34;;;;;;;2.85;1.80;;;;;;;23.99;33.22;95949.84;6182148;23;20156;-82
2023/09/28 10:21:00;;;;;;;2.90;2.20;;;;;;;23.87;33.49;95941.81;6154294;23;20194;-79
2023/09/28 10:23:26;;;;;;;2.10;1.85;;;;;;;24.08;33.00;95937.91;6178657;23;20155;-81
2023/09/28 10:25:58;;;;;;;4.38;2.10;;;;;;;24.16;33.80;95936.78;6154382;23;20185;-81
2023/09/28 10:28:24;;;;;;;2.30;1.95;;;;;;;24.23;34.20;95930.38;6154658;23;20153;-81
2023/09/28 10:31:07;;;;;;;2.20;1.83;;;;;;;24.31;33.02;95929.25;6153576;23;20183;-81
2023/09/28 10:33:33;;;;;;;1.90;1.70;;;;;;;24.33;33.89;95937.03;6175630;23;20643;-80
2023/09/28 10:36:12;;;;;;;3.05;2.08;;;;;;;24.51;32.93;95940.44;6128003;23;20185;-78
2023/09/28 10:38:39;;;;;;;2.75;1.85;;;;;;;24.46;32.62;95940.28;6152768;23;20179;-79
2023/09/28 10:41:06;;;;;;;3.65;2.05;;;;;;;24.52;33.37;95947.38;6151959;23;20235;-81
2023/09/28 10:43:42;;;;;;;2.15;1.80;;;;;;;24.66;33.00;95945.34;6152108;23;20213;-81
2023/09/28 10:46:08;;;;;;;2.35;1.90;;;;;;;24.78;32.63;95937.41;6152016;23;20182;-80
2023/09/28 10:48:40;;;;;;;2.25;1.98;;;;;;;24.66;32.83;95940.03;6128708;23;20646;-80
2023/09/28 10:51:13;;;;;;;2.08;1.88;;;;;;;24.80;32.94;95940.66;6153701;23;20255;-80
2023/09/28 10:53:39;;;;;;;2.20;1.98;;;;;;;24.81;31.87;95947.56;6152588;23;20160;-80
2023/09/28 10:56:06;;;;;;;4.05;2.28;;;;;;;24.93;33.07;95943.13;6129117;23;20201;-80
2023/09/28 10:58:33;;;;;;;2.33;1.77;;;;;;;25.06;32.12;95940.28;6153773;23;20162;-80
2023/09/28 11:01:04;;;;;;;3.13;1.90;;;;;;;25.14;32.40;95947.09;6178999;23;20541;-80
2023/09/28 11:03:32;;;;;;;2.72;1.88;;;;;;;25.02;33.05;95949.75;6127835;23;20599;-80
2023/09/28 11:05:58;;;;;;;3.72;2.20;;;;;;;24.91;33.49;95963.75;6177813;23;20179;-80
2023/09/28 11:08:25;;;;;;;3.17;2.00;;;;;;;25.18;33.03;95952.75;6154279;23;20495;-80
2023/09/28 11:10:50;;;;;;;2.85;2.20;;;;;;;25.16;33.21;95954.84;6178669;23;20732;-80
2023/09/28 11:13:15;;;;;;;4.28;2.10;;;;;;;25.32;32.98;95952.31;6152387;23;20198;-80
2023/09/28 11:15:41;;;;;;;2.30;1.98;;;;;;;25.27;32.44;95951.41;6128619;23;20201;-80
2023/09/28 11:18:06;;;;;;;2.17;1.98;;;;;;;25.40;33.28;95944.00;6154866;23;20183;-80
2023/09/28 11:20:32;;;;;;;2.60;2.25;;;;;;;25.37;33.61;95944.47;6131218;23;20486;-80
2023/09/28 11:22:57;;;;;;;2.88;2.35;;;;;;;25.23;32.25;95948.38;6152442;23;20213;-80
2023/09/28 11:25:25;;;;;;;2.10;1.70;;;;;;;25.42;32.72;95943.78;6126868;23;20653;-80
2023/09/28 11:27:50;;;;;;;8.90;2.72;;;;;;;25.57;33.25;95949.44;6150772;23;20242;-80
2023/09/28 11:30:19;;;;;;;3.65;2.38;;;;;;;25.55;32.80;95950.72;6150605;23;20206;-80